This is the latest recevied weather packets stored in our database for station/object F4GSP-4. If no packets are shown the sender has not sent any weather packets the latest 10 day(s).
| Time | Temp. | Humidity | Pressure | Rain* | Wind** | Luminosity | Snow |
|---|---|---|---|---|---|---|---|
| 1777475163 | 13.89° C | 48% | 1026.5 hPa | - | - | - | - |
| 1777474262 | 13.89° C | 47% | 1026.2 hPa | - | - | - | - |
| 1777473362 | 14.44° C | 46% | 1026 hPa | - | - | - | - |
| 1777472462 | 15° C | 46% | 1025.9 hPa | - | - | - | - |
| 1777471562 | 15.56° C | 44% | 1025.5 hPa | - | - | - | - |
| 1777470662 | 17.78° C | 42% | 1025.1 hPa | - | - | - | - |
| 1777469762 | 19.44° C | 43% | 1025 hPa | - | - | - | - |
| 1777468861 | 20.56° C | 42% | 1024.8 hPa | - | - | - | - |
| 1777467961 | 22.78° C | 42% | 1024.8 hPa | - | - | - | - |
| 1777467061 | 27.22° C | 42% | 1024.6 hPa | - | - | - | - |
| 1777466161 | 25° C | 44% | 1024.7 hPa | - | - | - | - |
| 1777465261 | 24.44° C | 43% | 1024.7 hPa | - | - | - | - |
| 1777464361 | 25.56° C | 43% | 1024.7 hPa | - | - | - | - |
| 1777463460 | 27.78° C | 44% | 1024.7 hPa | - | - | - | - |
| 1777462560 | 26.67° C | 45% | 1024.9 hPa | - | - | - | - |
| 1777461660 | 25° C | 45% | 1025.1 hPa | - | - | - | - |
| 1777460760 | 24.44° C | 46% | 1025.2 hPa | - | - | - | - |
| 1777459860 | 23.89° C | 46% | 1025.2 hPa | - | - | - | - |
| 1777458960 | 23.33° C | 47% | 1025.4 hPa | - | - | - | - |
| 1777458060 | 22.78° C | 48% | 1025.5 hPa | - | - | - | - |
| 1777457159 | 21.67° C | 48% | 1025.6 hPa | - | - | - | - |
| 1777456259 | 21.11° C | 49% | 1025.7 hPa | - | - | - | - |
| 1777455359 | 20° C | 49% | 1025.7 hPa | - | - | - | - |
| 1777454459 | 18.89° C | 50% | 1025.7 hPa | - | - | - | - |
| 1777453559 | 17.78° C | 51% | 1025.8 hPa | - | - | - | - |
* Rain since midnight (hover to see other rain measurements)
** Current wind speed in m/s (hover to see current wind gust speed)